Historyczne dane pomiarowe

Dodano dane terminowe – wersja testowa.

Dane z okresu 1951-2019

Wersja bazy: 1.34 [2019-03-16, lista zmian], aktualizacja planowana na 2019-04-15

Dane meteo z obszaru Polski uzyskane na podstawie danych udostępnionych przez Instytut Meteorologii i Gospodarki Wodnej – Państwowy Instytut Badawczy.

 

Wybierz Datę:    

       

TemperaturaWilgotnośćWiatrCiśnienieOpadyŚniegCzas trwania zjawisk
 Stacja t tx tn tng RH VA  wxwx mslp ppp RRR   cm mm wxwxwxwxwxwxwx
1952-04-17 6.3 9.5 -0.7- 60.0- 1.0 3.0---- 0.0------------
1952-04-18 5.7 9.2 2.7- 79.3- 0.0 3.3---- 0.0------------
1952-04-19 8.4 14.0 3.2- 75.3- 0.3 4.0---- 0.0------------
1952-04-20 8.9 15.3 -0.4- 80.3- 2.0 5.0---- 0.2------------
1952-04-21 7.6 14.2 5.5- 89.3- 6.0 2.7---- 0.0------------
1952-04-22 11.6 22.1 5.0- 80.3- 4.7 3.0---- 6.1------------
1952-04-23 7.8 10.4 6.5- 92.0- 8.0 2.3---- 4.9------------
1952-04-24 5.3 7.5 4.8- 94.5- 5.7 5.0---- 1.8------------
1952-04-25 6.7 8.7 4.1- 95.5- 8.0 2.7---- 1.0------------
1952-04-26 5.7 8.3 3.8- 91.5- 5.3 2.7---- 0.0------------
1952-04-27 5.2 5.9 4.1- 97.5- 8.0 3.0---- 0.8------------
1952-04-28 7.6 11.4 4.8- 91.0- 7.3 3.3---- 6.2------------
1952-04-29 5.8 8.5 5.0- 97.3- 7.0 2.0---- 2.1------------
1952-04-30 10.7 14.0 2.0- 83.8- 2.3 2.7---- 0.3------------
1952-05-01 7.3 13.2 4.7- 92.0- 6.0 3.3---- 4.0------------
1952-05-02 5.3 8.0 4.1- 90.5- 6.7 3.7---- 0.0------------
1952-05-03 8.3 15.5 0.2- 71.3- 0.7 3.3---- 0.0------------
1952-05-04 16.6 20.9 5.6- 63.5- 2.7 7.0---- 0.0------------
1952-05-05 13.8 21.3 9.9- 89.8- 6.7 5.3---- 1.1------------
1952-05-06 12.4 17.7 10.0- 84.0- 0.7 3.0---- 0.0------------
1952-05-07 10.0 14.5 5.3- 85.5- 0.3 3.0---- 0.0------------
1952-05-08 9.3 12.4 4.6- 84.5- 2.0 2.3---- 0.0------------
1952-05-09 12.3 18.4 6.8- 57.5- 0.3 3.0---- 0.0------------
1952-05-10 14.9 21.0 5.0- 77.0- 5.3 1.7---- 0.0------------
1952-05-11 9.5 14.8 8.1- 82.8- 6.7 2.0---- 0.0------------
1952-05-12 9.7 14.0 4.1- 81.8- 1.0 1.7---- 1.6------------
1952-05-13 7.1 8.8 6.3- 94.5- 8.0 2.7---- 8.1------------
1952-05-14 9.1 10.7 6.0- 87.8- 6.3 3.0---- 4.3------------
1952-05-15 5.1 11.1 3.6- 83.8- 6.0 4.0---- 0.7------------
1952-05-16 4.3 6.7 2.0- 86.8- 6.7 3.0---- 2.6------------
75.0 ms

 

Źródłem pochodzenia danych jest Instytut Meteorologii i Gospodarki Wodnej – Państwowy Instytut Badawczy. Dane Instytutu Meteorologii i Gospodarki Wodnej – Państwowego Instytutu Badawczego zostały przetworzone.

Dane źródłowe można odnaleźć na stronie https://dane.imgw.pl